Terminal Aerodrome Forecast
Issued by NWS

Home | Current Version | Previous Version | Text Only | Print | Product List | Glossary On
Versions: 1 2 3 4 5 6 7 8 9 10 11 12 13 14 15 16 17 18 19 20 21 22 23 24 25 26 27 28 29 30 31 32 33 34 35 36 37 38 39 40 41 42 43 44 45 46 47 48
000
FTUS41 KRNK 191122
TAFLWB
TAF
KLWB 191122Z 1912/2012 00000KT P6SM SCT015 OVC025
     FM191500 12006KT P6SM OVC020
     FM191900 14005KT P6SM SCT025 BKN040
     FM200100 VRB03KT 5SM BR SCT015 BKN035
     FM200700 11002KT 2SM BR SCT001 SCT030
     FM200900 00000KT 1/4SM FG BKN001=

USA.gov is the U.S. government's official web portal to all federal, state and local government web resources and services.